Latest Coastal Weather Observations for Williamtown

IDN60701

Issued at 9:05 pm EST Thursday 28 August 2014 (issued every 10 minutes, with the page automatically refreshed every 10 minutes)

About coastal observations | Map of coastal stations | Coastal observations for NSW | Marine services | Other Formats
Station Details ID: 061078 Name: WILLIAMTOWN RAAF Lat: -32.79 Lon: 151.84 Height: 9.0 m
Data from the previous 72 hours. | See also: Recent months at Williamtown
Date/Time
EST
Temp

°C
Wind Pressure Rain
since 9am
mm
Weather Cloud Vis
km
Sea
Height
m
Swell
Dir
 
Speed
knots
Gust
knots
hPa Trend Height
m
Period
s
Dir
28/09:00pm 15.4 S 14 19 1026.5 - 3.8 - Cloudy 10 - - - -
28/08:30pm 15.7 S 14 19 1026.2 - 3.8 - Partly cloudy 10 - - - -
28/08:00pm 15.4 S 14 19 1026.1 - 3.8 - Partly cloudy 10 - - - -
28/07:30pm 15.5 S 14 18 1026.0 - 3.8 - Partly cloudy 10 - - - -
28/07:00pm 15.2 S 12 17 1025.9 - 3.8 - Partly cloudy 10 - - - -
28/06:30pm 15.6 S 15 22 1025.7 - 3.8 - Partly cloudy 10 - - - -
28/06:00pm 15.8 S 13 18 1025.6 - 3.8 - Cloudy 10 - - - -
28/05:30pm 15.6 S 13 18 1025.2 - 3.6 - Partly cloudy 10 - - - -
28/05:00pm 16.0 S 12 18 1024.8 - 3.6 - Partly cloudy 10 - - - -
28/04:30pm 15.0 S 9 14 1024.7 - 3.6 - Partly cloudy 10 - - - -
28/04:00pm 14.4 SSE 19 32 1024.7 - 3.6 Showers Mostly clear 10 - - - -
28/03:48pm 18.2 SSE 18 32 1024.6 - 2.0 Showers Partly cloudy 8 - - - -
28/03:30pm 17.9 SSE 17 22 1024.3 - 2.0 - Partly cloudy 10 - - - -
28/03:00pm 18.5 SSE 18 25 1024.3 R 2.0 Distant precip. Mostly clear 30 - - - -
28/02:30pm 19.0 SSE 17 24 1024.1 - 2.0 - Partly cloudy 10 - - - -
28/02:19pm 18.9 SSE 15 25 1024.0 - 2.0 - Partly cloudy - - - - -
28/02:00pm 18.2 SSE 21 28 1024.1 - 2.0 Showers Partly cloudy 10 - - - -
28/01:30pm 18.3 SSE 14 19 1024.0 - 2.0 - Mostly clear 10 - - - -
28/01:00pm 17.9 SE 15 19 1024.2 - 2.0 - Mostly clear 10 - - - -
28/12:30pm 15.1 ESE 13 16 1024.6 - 2.0 Showers Partly cloudy 10 - - - -
28/12:16pm 17.5 SSE 18 31 1024.5 - 0.2 Showers Mostly clear 5 - - - -
28/12:14pm 19.0 SSE 18 21 1024.4 - 0.2 Showers Mostly clear 5 - - - -
28/12:00pm 17.8 SSE 18 23 1024.7 R 0.2 Distant precip. Partly cloudy 25 - - - -
28/11:30am 19.4 SSE 17 22 1024.8 - 0.2 - Partly cloudy 10 - - - -
28/11:00am 18.9 SSE 17 23 1024.9 - 0.2 - Partly cloudy 10 - - - -
28/10:30am 18.5 SE 16 19 1025.0 - 0.2 - Partly cloudy 10 - - - -
28/10:00am 14.7 SE 17 27 1025.2 - 0.0 Showers Partly cloudy 9 - - - -
28/09:55am 15.8 SSE 15 27 1025.3 - 0.0 Showers Partly cloudy 7 - - - -
28/09:30am 15.7 SSE 18 25 1025.2 - 0.0 Showers Partly cloudy 9 - - - -
28/09:26am 16.6 SSE 16 25 1025.1 - 0.0 Showers Partly cloudy 10 - - - -
28/09:00am 17.7 SSE 12 15 1025.1 F 12.4 Distant precip. Mostly cloudy 25 - - - -
28/08:30am 16.7 SSE 11 16 1024.8 - 12.4 - Mostly clear 10 - - - -
28/08:00am 13.7 W 7 9 1024.7 - 12.4 - Partly cloudy 10 - - - -
28/07:30am 13.8 SE 5 6 1024.3 - 12.4 - Mostly clear 10 - - - -
28/07:00am 12.9 SSW 5 10 1024.4 - 12.2 Showers Mostly clear 8 - - - -
28/06:30am 12.7 WNW 5 7 1024.0 - 11.8 Showers Mostly clear 9 - - - -
28/06:00am 12.8 E 6 9 1023.9 S 11.8 Showers Mostly cloudy 7 - - - -
28/05:45am 12.3 SW 10 13 1023.6 - 9.4 - Partly cloudy 5 - - - -
28/05:30am 12.2 NW 5 6 1023.2 - 7.0 - Partly cloudy 8 - - - -
28/05:00am 12.4 SW 8 10 1023.1 - 6.6 - Partly cloudy 10 - - - -
28/04:30am 12.8 W 7 9 1023.0 - 6.6 - Partly cloudy 10 - - - -
28/04:00am 13.4 SW 6 8 1022.9 - 6.6 - Partly cloudy 10 - - - -
28/03:30am 14.2 SE 6 9 1022.9 - 6.6 - Partly cloudy 10 - - - -
28/03:00am 14.5 ESE 7 10 1023.1 - 6.6 - Cloudy 10 - - - -
28/02:30am 14.5 ESE 14 18 1022.8 - 6.6 - Partly cloudy 10 - - - -
28/02:00am 15.1 SSE 11 15 1023.0 - 6.6 - Partly cloudy 10 - - - -
28/01:30am 15.1 SSE 9 11 1023.1 - 6.6 - Partly cloudy - - - - -
28/01:00am 15.0 SE 11 15 1023.4 - 6.6 - Partly cloudy 10 - - - -
28/12:30am 15.0 SSE 16 20 1023.5 - 6.6 - Partly cloudy 10 - - - -
28/12:00am 15.0 SE 14 18 1023.6 - 6.2 - Cloudy - - - - -
 
Date/Time
EST
Temp

°C
Wind Pressure Rain
since 9am
mm
Weather Cloud Vis
km
Sea
Height
m
Swell
Dir
 
Speed
knots
Gust
knots
hPa Trend Height
m
Period
s
Dir
27/11:30pm 14.5 SE 13 17 1023.5 - 6.2 - Partly cloudy - - - - -
27/11:12pm 13.8 S 11 17 1023.6 - 6.2 - Partly cloudy 10 - - - -
27/11:00pm 13.9 SSE 14 18 1023.9 - 6.0 - Partly cloudy 6 - - - -
27/10:48pm 13.6 SSE 15 18 1024.0 - 4.6 - Partly cloudy 4 - - - -
27/10:43pm 13.6 SE 20 26 1024.0 - 3.6 - Partly cloudy 6 - - - -
27/10:37pm 14.6 SE 20 26 1024.2 - 2.8 - Partly cloudy 10 - - - -
27/10:30pm 15.2 S 16 22 1024.0 - 2.8 - Partly cloudy 10 - - - -
27/10:00pm 14.6 S 18 24 1023.7 - 2.8 - Partly cloudy 10 - - - -
27/09:30pm 14.8 S 17 26 1023.8 - 2.6 - Partly cloudy 10 - - - -
27/09:13pm 15.1 S 15 29 1023.6 - 2.4 - Partly cloudy - - - - -
27/09:00pm 14.5 S 13 17 1023.6 - 2.4 - Cloudy - - - - -
27/08:34pm 14.1 S 17 27 1023.6 - 2.4 - Partly cloudy - - - - -
27/08:30pm 14.0 S 18 27 1023.6 - 2.4 - Partly cloudy 10 - - - -
27/08:25pm 14.3 SSW 17 27 1023.7 - 2.4 - Partly cloudy 9 - - - -
27/08:00pm 15.0 S 18 26 1023.7 - 2.4 - Partly cloudy 10 - - - -
27/07:30pm 15.6 S 17 21 1023.4 - 2.2 - Mostly clear 10 - - - -
27/07:00pm 15.3 SSE 17 23 1023.2 - 2.2 - Mostly clear 10 - - - -
27/06:30pm 14.5 S 18 23 1023.0 - 2.2 - Mostly clear 10 - - - -
27/06:18pm 14.9 S 15 25 1023.0 - 2.2 Showers Partly cloudy 9 - - - -
27/06:00pm 14.9 S 16 23 1022.8 - 2.2 - Cloudy 10 - - - -
27/05:46pm 14.4 SSE 19 29 1022.6 - 1.8 - Partly cloudy 8 - - - -
27/05:30pm 16.0 SSE 19 26 1022.3 - 1.6 Showers Partly cloudy 10 - - - -
27/05:00pm 16.6 SSE 16 20 1022.1 - 1.6 - Mostly clear 10 - - - -
27/04:30pm 16.8 S 14 20 1021.9 - 1.6 - Mostly clear 10 - - - -
27/04:00pm 16.6 SSE 19 26 1021.8 - 1.6 - Mostly clear 10 - - - -
27/03:30pm 17.2 SSE 17 21 1021.6 - 1.6 - Mostly clear 10 - - - -
27/03:00pm 18.4 SSE 15 20 1021.6 R 1.6 Fine Mostly cloudy 20 - - - -
27/02:30pm 15.8 SSE 16 21 1021.7 - 1.6 - Partly cloudy 10 - - - -
27/02:21pm 16.3 SSE 15 24 1021.7 - 1.6 Showers Mostly clear 10 - - - -
27/02:00pm 14.9 S 7 9 1021.8 - 1.6 Showers Mostly clear 10 - - - -
27/01:51pm 14.4 S 7 9 1021.8 - 1.6 Showers Mostly clear 9 - - - -
27/01:30pm 15.6 S 17 22 1022.2 - 0.6 Showers Mostly clear 5 - - - -
27/01:09pm 16.8 SSE 18 25 1022.1 - 0.6 Showers Mostly clear 9 - - - -
27/01:00pm 15.8 E 10 15 1022.2 - 0.6 Showers Mostly clear 9 - - - -
27/12:43pm 17.5 SSE 16 24 1022.4 - 0.4 Showers Mostly clear 6 - - - -
27/12:30pm 17.4 SSE 17 26 1022.3 - 0.4 Showers Mostly clear 10 - - - -
27/12:00pm 19.9 SE 17 21 1022.7 R 0.4 Distant precip. Mostly cloudy 20 - - - -
27/11:30am 19.5 SE 17 20 1022.8 - 0.4 - Partly cloudy 10 - - - -
27/11:00am 18.9 SE 16 21 1023.2 - 0.4 - Mostly clear 10 - - - -
27/10:30am 17.2 SSE 13 18 1023.6 - 0.4 - Mostly clear 10 - - - -
27/10:00am 15.7 SSE 17 21 1023.6 - 0.4 Showers Partly cloudy 10 - - - -
27/09:35am 17.3 SE 16 27 1023.6 - 0.0 Showers Mostly clear 10 - - - -
27/09:30am 18.3 ESE 15 21 1023.3 - 0.0 Showers Partly cloudy 10 - - - -
27/09:00am 18.4 ESE 13 18 1023.2 R 21.6 Fine Partly cloudy 25 - - - -
27/08:30am 17.8 ESE 14 18 1023.1 - 21.6 - Mostly clear 10 - - - -
27/08:00am 17.5 ESE 16 21 1023.0 - 21.6 - Mostly clear 10 - - - -
27/07:30am 16.7 ESE 15 22 1022.8 - 21.6 - Partly cloudy 10 - - - -
27/07:00am 16.0 ESE 16 22 1022.3 - 21.6 - Mostly clear 10 - - - -
27/06:30am 15.8 SE 16 20 1022.1 - 21.6 - Mostly clear 10 - - - -
27/06:00am 15.6 SE 17 23 1021.8 F 21.6 Distant precip. Mostly cloudy 20 - - - -
27/05:30am 15.7 SE 18 24 1021.7 - 21.6 - Partly cloudy 10 - - - -
27/05:00am 15.4 ESE 13 18 1021.5 - 21.6 - Partly cloudy 10 - - - -
27/04:30am 15.0 E 12 19 1021.3 - 21.6 - Partly cloudy 10 - - - -
27/04:00am 15.0 ESE 16 23 1021.2 - 21.4 - Partly cloudy 10 - - - -
27/03:30am 15.6 ESE 14 19 1021.1 - 21.4 - Partly cloudy 10 - - - -
27/03:00am 14.8 ESE 13 17 1021.3 - 21.2 - Cloudy 10 - - - -
27/02:43am 14.7 ESE 16 22 1021.4 - 21.2 - Partly cloudy 10 - - - -
27/02:30am 14.6 ESE 17 26 1021.4 - 20.8 - Partly cloudy 5 - - - -
27/02:13am 14.8 SE 16 28 1021.5 - 18.6 - Partly cloudy 5 - - - -
27/02:01am 14.7 ESE 10 15 1021.5 - 16.0 - Partly cloudy 6 - - - -
27/02:00am 14.7 ESE 10 15 1021.5 - 15.8 - Partly cloudy 7 - - - -
27/01:30am 15.0 ESE 16 22 1021.5 - 14.8 - Partly cloudy 10 - - - -
27/01:00am 15.5 ESE 17 27 1021.6 - 14.8 - Partly cloudy 10 - - - -
27/12:58am 15.7 ESE 17 27 1021.6 - 14.8 - Partly cloudy 10 - - - -
27/12:34am 14.8 E 14 23 1021.5 - 14.4 - Partly cloudy 10 - - - -
27/12:32am 14.8 E 16 26 1021.6 - 14.4 - Partly cloudy 10 - - - -
27/12:30am 14.8 E 18 26 1021.6 - 14.4 - Partly cloudy 10 - - - -
27/12:10am 14.7 E 16 26 1021.7 - 12.0 - Partly cloudy 1 - - - -
27/12:00am 15.0 ESE 18 24 1021.8 - 9.4 - Cloudy 5 - - - -
 
Date/Time
EST
Temp

°C
Wind Pressure Rain
since 9am
mm
Weather Cloud Vis
km
Sea
Height
m
Swell
Dir
 
Speed
knots
Gust
knots
hPa Trend Height
m
Period
s
Dir
26/11:56pm 15.0 SE 18 24 1021.8 - 9.2 - Partly cloudy 5 - - - -
26/11:45pm 15.4 SE 17 27 1021.7 - 7.6 - Partly cloudy 10 - - - -
26/11:40pm 15.3 SE 15 21 1021.8 - 7.6 - Partly cloudy 10 - - - -
26/11:30pm 14.4 CALM 0 4 1021.8 - 7.6 - Partly cloudy 10 - - - -
26/11:00pm 14.6 N 5 7 1022.0 - 7.6 - Partly cloudy 10 - - - -
26/10:30pm 14.8 NNE 5 7 1022.1 - 7.2 - Partly cloudy 10 - - - -
26/10:00pm 14.9 E 5 13 1022.2 - 7.2 - Partly cloudy 9 - - - -
26/09:30pm 13.5 CALM 0 0 1022.2 - 6.8 - Partly cloudy 10 - - - -
26/09:03pm 13.5 NNE 2 5 1022.5 - 6.8 - Partly cloudy 10 - - - -
26/09:00pm 13.6 NNE 3 7 1022.5 - 6.8 - Cloudy 10 - - - -
26/08:49pm 14.0 ENE 3 10 1022.5 - 6.8 - Partly cloudy 6 - - - -
26/08:30pm 13.6 ENE 2 5 1022.5 - 6.2 - Partly cloudy 10 - - - -
26/08:00pm 14.2 ENE 3 4 1022.2 - 6.2 - Partly cloudy 10 - - - -
26/07:30pm 14.2 ENE 4 5 1022.0 - 6.2 - Partly cloudy 10 - - - -
26/07:00pm 15.2 ENE 9 15 1021.7 - 6.2 - Mostly clear 10 - - - -
26/06:30pm 15.1 E 7 9 1021.3 - 6.2 - Mostly clear 10 - - - -
26/06:00pm 13.6 CALM 0 0 1021.2 - 6.2 - Cloudy 10 - - - -
26/05:30pm 14.8 WNW 4 5 1021.1 - 6.2 - Mostly clear 10 - - - -
26/05:00pm 15.5 S 8 10 1021.0 - 6.2 - Mostly clear 10 - - - -
26/04:30pm 15.4 S 8 12 1020.9 - 6.2 - Mostly clear 10 - - - -
26/04:00pm 15.0 SSW 10 13 1020.8 - 6.0 Showers Partly cloudy 10 - - - -
26/03:30pm 15.2 S 8 11 1020.9 - 3.6 Showers Partly cloudy 5 - - - -
26/03:00pm 16.3 S 10 13 1021.0 R 3.2 Showers Cloudy 15 - - - -
26/02:30pm 16.0 S 9 11 1020.8 - 3.2 - Mostly clear 10 - - - -
26/02:00pm 15.5 S 7 9 1021.1 - 3.2 - Mostly clear 10 - - - -
26/01:30pm 15.2 S 8 9 1021.3 - 3.2 - Mostly clear 10 - - - -
26/01:00pm 15.0 SSE 5 6 1021.6 - 3.2 - Mostly clear 10 - - - -
26/12:30pm 14.3 E 2 4 1021.9 - 3.2 - Partly cloudy 10 - - - -
26/12:00pm 14.1 ESE 6 8 1022.5 R 3.0 Rain Cloudy 9 - - - -
26/11:30am 14.3 E 7 8 1022.8 - 2.0 Rain Mostly clear 10 - - - -
26/11:00am 14.8 ESE 9 13 1022.9 - 1.4 Rain Mostly clear 9 - - - -
26/10:30am 14.6 SE 10 13 1023.1 - 1.2 Showers Mostly clear 10 - - - -
26/10:00am 14.6 E 8 11 1023.0 - 1.2 Showers Mostly clear 10 - - - -
26/09:54am 14.5 E 9 11 1023.0 - 1.0 Showers Mostly clear 9 - - - -
26/09:30am 14.7 E 10 14 1023.1 - 0.6 Showers Mostly clear 6 - - - -
26/09:00am 13.9 NW 1 4 1023.0 R 7.0 Showers Mostly cloudy 9 - - - -
26/08:47am 13.3 NW 4 5 1022.9 - 6.6 Showers Mostly clear 10 - - - -
26/08:30am 13.3 NE 1 5 1022.7 - 6.2 Showers Mostly clear 7 - - - -
26/08:20am 13.3 CALM 0 0 1022.6 - 5.0 Showers Mostly clear 6 - - - -
26/08:00am 13.6 ENE 1 3 1022.5 - 4.6 Showers Mostly clear 10 - - - -
26/07:30am 14.0 SSE 4 5 1022.1 - 4.6 - Mostly clear 10 - - - -
26/07:00am 13.5 SSE 5 7 1021.7 - 4.4 Showers Mostly clear 9 - - - -
26/06:30am 13.5 SE 6 7 1021.6 - 4.2 Showers Mostly clear 10 - - - -
26/06:00am 13.0 CALM 0 0 1021.4 F 4.2 Showers Cloudy 18 - - - -
26/05:30am 13.2 SSW 1 5 1021.1 - 4.2 - Partly cloudy 10 - - - -
26/05:00am 13.4 S 5 7 1021.1 - 3.6 - Partly cloudy 10 - - - -
26/04:43am 13.4 S 8 11 1021.1 - 3.2 - Partly cloudy - - - - -
26/04:30am 13.1 ESE 5 8 1021.1 - 2.2 - Partly cloudy - - - - -
26/04:00am 11.3 NW 4 4 1020.9 - 0.2 - Partly cloudy - - - - -
26/03:42am 10.9 WNW 5 6 1020.9 - 0.2 - Partly cloudy - - - - -
26/03:30am 10.3 CALM 0 0 1020.8 - 0.2 - Partly cloudy - - - - -
26/03:27am 10.5 CALM 0 0 1020.9 - 0.2 - Partly cloudy - - - - -
26/03:24am 10.5 CALM 0 0 1020.9 - 0.2 - Partly cloudy - - - - -
26/03:00am 10.8 CALM 0 0 1020.9 - 0.2 - Cloudy - - - - -
26/02:30am 10.8 CALM 0 0 1021.1 - 0.2 - Partly cloudy - - - - -
26/02:00am 10.8 CALM 0 0 1021.2 - 0.2 - Partly cloudy - - - - -
26/01:30am 10.6 W 2 4 1021.4 - 0.2 - Partly cloudy - - - - -
26/01:00am 10.6 WNW 4 5 1021.4 - 0.2 - Partly cloudy - - - - -
26/12:30am 10.2 CALM 0 0 1021.6 - 0.2 - Partly cloudy - - - - -
26/12:00am 10.4 NW 2 3 1022.0 - 0.2 - Cloudy - - - - -
 
Date/Time
EST
Temp

°C
Wind Pressure Rain
since 9am
mm
Weather Cloud Vis
km
Sea
Height
m
Swell
Dir
 
Speed
knots
Gust
knots
hPa Trend Height
m
Period
s
Dir
25/11:34pm 9.9 WNW 5 6 1021.8 - 0.2 - - - - - - -
25/11:30pm 9.7 WNW 4 6 1021.8 - 0.2 - - - - - - -
25/11:23pm 9.5 CALM 0 5 1021.8 - 0.2 - - 1 - - - -
25/11:00pm 9.5 CALM 0 0 1022.0 - 0.2 - Partly cloudy 0.4 - - - -
25/10:57pm 9.4 CALM 0 3 1022.1 - 0.2 - Partly cloudy 0.8 - - - -
25/10:32pm 9.1 CALM 0 2 1022.1 - 0.2 - - 6 - - - -
25/10:30pm 9.4 NNW 1 3 1022.1 - 0.2 - - 10 - - - -
25/10:00pm 9.9 NNW 4 5 1022.5 - 0.2 - - 10 - - - -
25/09:30pm 10.2 ENE 3 5 1022.6 - 0.2 - - - - - - -

Other Formats:

Comma delimited format used in spreadsheet applications
http://www.bom.gov.au/fwo/IDN60701/IDN60701.94776.axf

JavaScript Object Notation format (JSON) in row-major order
http://www.bom.gov.au/fwo/IDN60701/IDN60701.94776.json